Soddy Daisy, TN (37379)

2:17 PM EDT on August 28, 2016 (GMT -0400)
Shady Grove | | Change Station

Elev 797 ft 35.26 °N, 85.12 °W | Updated 16 seconds ago

Scattered Clouds
Scattered Clouds
95.0 °F
Feels Like 108 °F
N
0.0
Wind Variable Wind from ESE
Gusts 2.0 mph

Today
High -- | Low -- °F
--% Chance of Precip.
Yesterday
High -- | Low -- °F
Precip. -- in
Pressure 30.12 in
Visibility 10.0 miles
Clouds Few 4500 ft
Scattered Clouds 7000 ft
Scattered Clouds 12000 ft
Heat Index 108 °F
Dew Point 76 °F
Humidity 54%
Rainfall 0.00 in
Snow Depth Not available.
7:10 AM 8:12 PM
Waning Crescent, 14% visible
METAR KCHA 281753Z 00000KT 10SM FEW045 SCT070 SCT120 33/21 A3015 RMK AO2 SLP199 T03330206 10333 20228 58017 $
Pressure 30.12 in
Visibility 10.0 miles
Clouds Few 4500 ft
Scattered Clouds 7000 ft
Scattered Clouds 12000 ft
Heat Index 108 °F
Dew Point 76 °F
Humidity 54%
Rainfall 0.00 in
Snow Depth Not available.
7:10 AM 8:12 PM
Waning Crescent, 14% visible
METAR KCHA 281753Z 00000KT 10SM FEW045 SCT070 SCT120 33/21 A3015 RMK AO2 SLP199 T03330206 10333 20228 58017 $

10-Day Weather Forecast

Almanac

Astronomy

Aug. 28, 2016 Rise Set
Actual Time
Civil Twilight
Nautical Twilight
Astronomical Twilight
Moon
Length of Visible Light
Length of Day
Tomorrow will be .
, % of the Moon is Illuminated

Today's Extremes

State Highs State Lows

Community

WunderPhotos

Upload Photos

1,935,644 photos uploaded!

WunderBlog® & News

Nearby

Air Quality

  Air Quality AQ Index Pollutant
Not available.

Snow Depth

Station Depth Elevation

Earthquake Activity

City Distance Mag. Time & Date
Minimum magnitude displayed is 2.5.

Coastal Water Temperatures

Place Temperature

Stations

Nearby Weather Stations

Station Location Temp. Windchill Dew Point Humidity Wind Precip. Elev Updated Type
                   

Watches & Warnings

There are currently no watches in effect.